Time;durP1;ratioP1;P1;durP2;ratioP2;P2;SDS_P1;SDS_P2;PMS_P1;PMS_P2;Temp;Humidity;BMP_temperature;BMP_pressure;BME280_temperature;BME280_humidity;BME280_pressure;Samples;Min_cycle;Max_cycle;Signal;HPM_P1;HPM_P2
2023/02/23 00:02:57;;;;;;;36.60;27.30;;;;;;;-0.05;69.29;100667.54;110896;1254;21988;-78
2023/02/23 00:06:13;;;;;;;43.40;28.40;;;;;;;-0.07;69.20;100658.61;111306;1254;21997;-78
2023/02/23 00:08:54;;;;;;;35.20;27.10;;;;;;;-0.07;69.16;100661.17;111329;1251;23472;-77
2023/02/23 00:12:25;;;;;;;;;;;;;;;;;;;;;
2023/02/23 00:15:40;;;;;;;32.10;23.10;;;;;;;-0.09;69.24;100650.71;111658;1242;21953;-79
2023/02/23 00:18:22;;;;;;;32.70;23.70;;;;;;;-0.07;69.20;100648.34;112010;1242;21952;-77
2023/02/23 00:21:13;;;;;;;30.30;23.60;;;;;;;-0.07;69.07;100645.27;112577;1239;23571;-80
2023/02/23 00:24:22;;;;;;;;;;;;;;;;;;;;;
2023/02/23 00:27:19;;;;;;;30.80;23.00;;;;;;;-0.08;68.96;100640.98;112064;1245;22008;-79
2023/02/23 00:30:36;;;;;;;;;;;;;;;;;;;;;
2023/02/23 00:33:50;;;;;;;;;;;;;;;;;;;;;
2023/02/23 00:36:54;;;;;;;31.50;20.80;;;;;;;-0.14;68.99;100639.70;112148;1245;22022;-78
2023/02/23 00:39:53;;;;;;;30.70;21.20;;;;;;;-0.14;68.95;100637.50;111475;1252;21973;-78
2023/02/23 00:43:31;;;;;;;;;;;;;;;;;;;;;
2023/02/23 00:47:10;;;;;;;26.60;20.50;;;;;;;-0.15;68.94;100641.59;112199;1245;23034;-78
2023/02/23 00:50:49;;;;;;;30.40;22.00;;;;;;;-0.17;68.94;100638.31;112351;1244;21936;-79
2023/02/23 00:53:42;;;;;;;26.50;20.90;;;;;;;-0.19;68.95;100637.95;112035;1247;22091;-78
2023/02/23 00:56:49;;;;;;;27.70;21.70;;;;;;;-0.18;68.93;100640.02;111315;1251;22111;-78
2023/02/23 00:59:58;;;;;;;31.30;22.20;;;;;;;-0.19;68.83;100637.09;111896;1246;21964;-78
2023/02/23 01:02:51;;;;;;;27.90;20.60;;;;;;;-0.22;68.88;100635.02;111970;1247;23492;-79
2023/02/23 01:05:42;;;;;;;25.70;20.10;;;;;;;-0.23;68.92;100633.46;112294;1242;23603;-79
2023/02/23 01:08:57;;;;;;;28.20;21.40;;;;;;;-0.25;68.85;100629.17;111769;1245;23759;-79
2023/02/23 01:11:46;;;;;;;26.60;19.10;;;;;;;-0.27;68.89;100628.30;112320;1243;23850;-78
2023/02/23 01:14:46;;;;;;;26.10;20.40;;;;;;;-0.29;68.97;100628.61;112565;1238;23179;-78
2023/02/23 01:17:58;;;;;;;39.60;21.70;;;;;;;-0.31;68.87;100627.05;112527;1243;23025;-79
2023/02/23 01:20:49;;;;;;;28.00;21.70;;;;;;;-0.32;68.95;100626.18;112115;1243;22642;-78
2023/02/23 01:23:38;;;;;;;26.80;20.80;;;;;;;-0.31;68.98;100626.02;112289;1243;21963;-79
2023/02/23 01:26:56;;;;;;;27.60;18.80;;;;;;;-0.35;68.99;100623.58;112680;1238;21956;-79
2023/02/23 01:29:56;;;;;;;27.90;20.40;;;;;;;-0.36;69.06;100621.69;113092;1238;22534;-78
2023/02/23 01:32:58;;;;;;;24.30;20.00;;;;;;;-0.37;69.09;100622.19;113087;1235;22308;-78
2023/02/23 01:36:13;;;;;;;25.00;20.10;;;;;;;-0.39;69.09;100619.43;113440;1234;23565;-79
2023/02/23 01:39:30;;;;;;;;;;;;;;;;;;;;;
2023/02/23 01:42:31;;;;;;;;;;;;;;;;;;;;;
2023/02/23 01:46:08;;;;;;;28.80;21.10;;;;;;;-0.44;69.14;100615.11;113243;1239;21954;-78
2023/02/23 01:49:00;;;;;;;27.80;19.50;;;;;;;-0.45;69.29;100611.33;112773;1233;21947;-78
2023/02/23 01:52:34;;;;;;;27.40;21.00;;;;;;;-0.46;69.16;100605.68;112940;1238;21971;-78
2023/02/23 01:57:06;;;;;;;;;;;;;;;;;;;;;
2023/02/23 02:00:12;;;;;;;28.00;19.40;;;;;;;-0.52;69.36;100596.55;111882;1249;21968;-79
2023/02/23 02:03:11;;;;;;;29.60;21.50;;;;;;;-0.52;69.45;100592.80;111478;1248;22115;-79
2023/02/23 02:06:23;;;;;;;25.20;20.40;;;;;;;-0.53;69.43;100588.84;112040;1248;21966;-79
2023/02/23 02:09:36;;;;;;;24.00;19.80;;;;;;;-0.52;69.45;100583.38;111877;1248;21964;-79
2023/02/23 02:16:59;;;;;;;;;;;;;;;;;;;;;
2023/02/23 02:20:41;;;;;;;26.80;20.60;;;;;;;-0.55;69.51;100577.86;111087;1254;21937;-79
2023/02/23 02:24:17;;;;;;;29.10;22.10;;;;;;;-0.57;69.52;100568.46;111283;1253;23028;-79
2023/02/23 02:27:29;;;;;;;32.10;23.70;;;;;;;-0.56;69.75;100567.26;111552;1252;24199;-79
2023/02/23 02:30:51;;;;;;;;;;;;;;;;;;;;;
2023/02/23 02:34:58;;;;;;;27.70;21.40;;;;;;;-0.55;69.74;100564.89;111478;1252;22022;-79
2023/02/23 02:38:24;;;;;;;44.10;25.10;;;;;;;-0.54;69.80;100560.45;111378;1243;21971;-78
2023/02/23 02:42:15;;;;;;;33.60;24.50;;;;;;;-0.53;69.84;100559.61;111611;1252;22984;-78
2023/02/23 02:45:43;;;;;;;32.60;22.10;;;;;;;-0.52;69.87;100560.13;111164;1252;23795;-77
2023/02/23 02:48:58;;;;;;;;;;;;;;;;;;;;;
2023/02/23 02:53:31;;;;;;;38.80;24.30;;;;;;;-0.54;69.90;100560.63;111807;1251;24922;-77
2023/02/23 02:56:37;;;;;;;;;;;;;;;;;;;;;
2023/02/23 04:20:19;;;;;;;24.30;20.80;;;;;;;-0.65;70.77;100526.83;112630;1241;21965;-80
2023/02/23 04:23:42;;;;;;;;;;;;;;;;;;;;;
2023/02/23 04:27:03;;;;;;;;;;;;;;;;;;;;;
2023/02/23 04:30:44;;;;;;;26.80;20.90;;;;;;;-0.65;70.90;100534.18;112797;1241;21971;-77
2023/02/23 04:34:13;;;;;;;;;;;;;;;;;;;;;
2023/02/23 04:37:16;;;;;;;28.20;21.30;;;;;;;-0.65;70.94;100525.63;111967;1247;21959;-78
2023/02/23 04:40:47;;;;;;;25.80;20.00;;;;;;;-0.65;71.02;100523.75;111946;1247;22737;-75
2023/02/23 04:43:32;;;;;;;78.70;48.10;;;;;;;-0.60;71.04;100522.95;111996;1247;23735;-79
2023/02/23 04:46:55;;;;;;;38.60;28.60;;;;;;;-0.56;70.93;100522.81;111831;1247;23671;-78
2023/02/23 04:49:39;;;;;;;38.20;30.10;;;;;;;-0.54;70.84;100519.09;111486;1251;23591;-79
2023/02/23 04:52:48;;;;;;;33.50;27.30;;;;;;;-0.53;70.74;100514.30;111251;1251;21960;-78
2023/02/23 04:55:39;;;;;;;;;;;;;;;;;;;;;
2023/02/23 04:58:46;;;;;;;34.70;29.10;;;;;;;-0.53;70.77;100505.75;111583;1250;21998;-78
2023/02/23 05:02:13;;;;;;;;;;;;;;;;;;;;;
2023/02/23 05:05:20;;;;;;;40.40;31.00;;;;;;;-0.60;70.87;100505.17;111112;1256;22032;-78
2023/02/23 05:08:22;;;;;;;76.40;65.20;;;;;;;-0.60;70.92;100507.05;111210;1253;23116;-78
2023/02/23 05:11:32;;;;;;;87.50;66.80;;;;;;;-0.62;70.91;100505.67;111691;1245;22817;-78
2023/02/23 05:14:33;;;;;;;226.90;153.50;;;;;;;-0.62;70.90;100505.67;111784;1245;22719;-78
2023/02/23 05:17:25;;;;;;;102.90;80.60;;;;;;;-0.60;70.90;100503.29;112079;1245;23578;-78
2023/02/23 05:20:21;;;;;;;74.20;59.50;;;;;;;-0.60;70.95;100501.92;112028;1245;21948;-79
2023/02/23 05:23:33;;;;;;;46.40;39.60;;;;;;;-0.60;70.95;100495.77;112228;1245;22089;-79
2023/02/23 05:26:45;;;;;;;98.10;80.40;;;;;;;-0.57;70.96;100499.23;112309;1245;21985;-80
2023/02/23 05:30:14;;;;;;;91.10;74.50;;;;;;;-0.57;70.88;100498.36;111938;1244;21991;-79
2023/02/23 05:33:13;;;;;;;76.80;58.90;;;;;;;-0.55;70.83;100495.48;112037;1245;21993;-79
2023/02/23 05:36:11;;;;;;;48.80;39.00;;;;;;;-0.53;70.88;100493.27;112387;1244;23607;-78
2023/02/23 05:39:31;;;;;;;45.40;34.00;;;;;;;-0.53;70.86;100488.14;111853;1249;22012;-78
2023/02/23 05:42:50;;;;;;;36.50;29.00;;;;;;;-0.52;70.76;100487.81;111744;1249;22333;-81
2023/02/23 05:45:49;;;;;;;42.20;31.30;;;;;;;-0.52;70.75;100492.09;111881;1249;22363;-79
2023/02/23 05:48:57;;;;;;;45.70;29.30;;;;;;;-0.54;70.78;100489.50;112259;1242;23048;-78
2023/02/23 05:51:38;;;;;;;61.60;40.00;;;;;;;-0.57;70.82;100488.11;112320;1242;23684;-78
2023/02/23 05:54:31;;;;;;;62.40;44.30;;;;;;;-0.56;70.86;100491.88;112038;1242;21964;-76
2023/02/23 05:57:20;;;;;;;39.50;31.10;;;;;;;-0.56;70.86;100489.49;112987;1234;21946;-79
2023/02/23 06:00:51;;;;;;;61.30;43.20;;;;;;;-0.58;70.93;100492.89;112810;1240;21951;-79
2023/02/23 06:04:54;;;;;;;;;;;;;;;;;;;;;
2023/02/23 06:08:15;;;;;;;;;;;;;;;;;;;;;
2023/02/23 06:11:29;;;;;;;39.40;28.50;;;;;;;-0.52;71.09;100487.82;112821;1232;23105;-78
2023/02/23 06:14:42;;;;;;;53.30;37.80;;;;;;;-0.48;71.07;100484.77;112527;1241;21968;-79
2023/02/23 06:17:57;;;;;;;43.30;30.60;;;;;;;-0.44;71.14;100488.75;111800;1247;21970;-78
2023/02/23 06:20:35;;;;;;;41.90;30.00;;;;;;;-0.39;71.07;100488.45;111981;1246;21987;-77
2023/02/23 06:24:14;;;;;;;;;;;;;;;;;;;;;
2023/02/23 06:28:43;;;;;;;;;;;;;;;;;;;;;
2023/02/23 06:32:16;;;;;;;;;;;;;;;;;;;;;
2023/02/23 06:36:13;;;;;;;;;;;;;;;;;;;;;
2023/02/23 06:44:34;;;;;;;49.00;31.10;;;;;;;-0.13;70.82;100486.45;110612;1260;21977;-79
2023/02/23 06:48:09;;;;;;;;;;;;;;;;;;;;;
2023/02/23 06:51:33;;;;;;;49.80;31.00;;;;;;;0.01;70.71;100485.86;110322;1262;22755;-78
2023/02/23 06:54:55;;;;;;;;;;;;;;;;;;;;;
2023/02/23 06:58:48;;;;;;;;;;;;;;;;;;;;;
2023/02/23 07:02:18;;;;;;;;;;;;;;;;;;;;;
2023/02/23 07:06:17;;;;;;;53.20;32.60;;;;;;;0.20;70.10;100487.05;109994;1264;23738;-78
2023/02/23 07:13:19;;;;;;;;;;;;;;;;;;;;;
2023/02/23 07:16:32;;;;;;;41.80;26.50;;;;;;;0.41;70.07;100482.19;109463;1269;22126;-78
2023/02/23 07:20:14;;;;;;;;;;;;;;;;;;;;;
2023/02/23 07:24:34;;;;;;;;;;;;;;;;;;;;;
2023/02/23 07:46:52;;;;;;;32.40;23.50;;;;;;;3.15;60.74;100477.80;106853;1263;5434729;-78
2023/02/23 07:50:50;;;;;;;;;;;;;;;;;;;;;
2023/02/23 07:54:53;;;;;;;50.90;32.10;;;;;;;2.62;62.57;100472.36;109794;1262;21977;-77
2023/02/23 07:59:07;;;;;;;;;;;;;;;;;;;;;
2023/02/23 08:02:31;;;;;;;;;;;;;;;;;;;;;
2023/02/23 08:20:05;;;;;;;;;;;;;;;;;;;;;
2023/02/23 08:23:48;;;;;;;;;;;;;;;;;;;;;
2023/02/23 08:26:49;;;;;;;26.10;20.50;;;;;;;5.15;53.84;100444.35;110579;1263;23130;-77
2023/02/23 08:30:24;;;;;;;26.70;20.20;;;;;;;4.97;54.31;100446.85;109992;1269;21996;-77
2023/02/23 08:33:19;;;;;;;27.00;20.20;;;;;;;4.92;55.00;100447.95;109087;1274;22450;-78
2023/02/23 08:36:33;;;;;;;30.70;24.00;;;;;;;4.76;55.03;100443.49;108803;1279;22339;-77
2023/02/23 08:39:24;;;;;;;27.90;22.20;;;;;;;4.64;55.24;100442.77;108572;1279;22437;-78
2023/02/23 08:42:18;;;;;;;40.10;27.30;;;;;;;4.53;55.60;100442.39;109030;1275;23731;-76
2023/02/23 08:45:18;;;;;;;37.70;24.20;;;;;;;4.51;56.12;100438.46;109063;1277;23058;-76
2023/02/23 08:48:45;;;;;;;;;;;;;;;;;;;;;
2023/02/23 08:52:43;;;;;;;28.50;21.30;;;;;;;4.77;56.19;100435.03;109280;1274;23093;-76
2023/02/23 08:56:49;;;;;;;32.80;23.40;;;;;;;4.64;56.28;100430.02;109369;1270;22931;-75
2023/02/23 09:00:37;;;;;;;28.20;21.90;;;;;;;4.52;56.04;100431.36;109713;1269;21985;-76
2023/02/23 09:03:08;;;;;;;28.80;22.10;;;;;;;4.31;56.18;100424.52;109477;1267;22586;-76
2023/02/23 09:06:39;;;;;;;;;;;;;;;;;;;;;
2023/02/23 09:09:39;;;;;;;27.90;20.90;;;;;;;4.46;56.97;100420.05;110162;1267;23041;-78
2023/02/23 09:12:40;;;;;;;32.40;21.90;;;;;;;4.50;56.84;100409.84;109762;1261;21988;-76
2023/02/23 09:15:29;;;;;;;26.80;22.50;;;;;;;4.55;57.06;100403.76;110397;1262;23017;-76
2023/02/23 09:19:48;;;;;;;31.00;23.60;;;;;;;4.70;57.41;100398.73;110471;1262;22911;-76
2023/02/23 09:23:57;;;;;;;;;;;;;;;;;;;;;
2023/02/23 09:37:34;;;;;;;;;;;;;;;;;;;;;
2023/02/23 09:40:09;;;;;;;41.20;25.70;;;;;;;5.26;56.37;100389.50;108422;1283;22006;-77
2023/02/23 09:43:22;;;;;;;30.60;23.70;;;;;;;5.35;56.55;100386.80;108602;1279;23046;-76
2023/02/23 09:46:40;;;;;;;27.70;22.00;;;;;;;5.37;56.07;100384.84;108775;1280;23717;-76
2023/02/23 09:49:19;;;;;;;32.90;24.00;;;;;;;5.37;56.05;100382.45;108863;1275;21987;-77
2023/02/23 09:52:02;;;;;;;27.50;21.20;;;;;;;5.44;56.14;100381.80;109094;1268;21999;-77
2023/02/23 09:54:42;;;;;;;35.60;26.00;;;;;;;5.46;55.81;100376.94;109559;1268;21986;-77
2023/02/23 09:57:38;;;;;;;31.20;23.00;;;;;;;5.55;56.16;100376.63;109682;1268;22443;-77
2023/02/23 10:02:20;;;;;;;34.20;25.40;;;;;;;5.72;56.05;100379.43;109588;1249;22004;-76
2023/02/23 10:06:11;;;;;;;32.70;21.70;;;;;;;5.87;55.85;100375.38;109891;1268;21982;-77
2023/02/23 10:10:22;;;;;;;26.70;21.20;;;;;;;6.15;56.24;100371.42;109765;1265;21971;-78
2023/02/23 10:14:38;;;;;;;;;;;;;;;;;;;;;
2023/02/23 10:18:26;;;;;;;26.30;20.50;;;;;;;6.84;54.78;100365.88;109050;1272;21990;-76
2023/02/23 10:21:41;;;;;;;26.50;20.20;;;;;;;7.03;54.08;100362.66;109292;1272;22741;-77
2023/02/23 10:24:24;;;;;;;;;;;;;;;7.20;54.12;100360.02;109427;1272;23021;-78
2023/02/23 10:27:33;;;;;;;;;;;;;;;;;;;;;
2023/02/23 10:31:13;;;;;;;27.10;21.40;;;;;;;7.75;53.94;100348.97;109095;1275;23044;-78
2023/02/23 10:35:40;;;;;;;;;;;;;;;;;;;;;
2023/02/23 10:39:25;;;;;;;;;;;;;;;;;;;;;
2023/02/23 10:42:33;;;;;;;27.90;20.80;;;;;;;8.71;51.38;100336.95;109231;1272;21985;-77
2023/02/23 10:46:39;;;;;;;21.80;18.30;;;;;;;8.70;50.56;100330.38;108905;1277;22832;-76
2023/02/23 10:50:06;;;;;;;27.30;19.40;;;;;;;8.83;50.66;100324.77;108942;1277;22020;-77
2023/02/23 10:53:56;;;;;;;26.30;19.80;;;;;;;9.08;49.99;100317.55;109354;1266;23707;-78
2023/02/23 10:57:38;;;;;;;20.70;17.50;;;;;;;8.98;49.30;100307.27;109319;1273;22397;-77
2023/02/23 11:01:37;;;;;;;27.10;20.00;;;;;;;8.85;49.83;100300.08;109464;1268;21978;-76
2023/02/23 11:05:51;;;;;;;23.00;19.60;;;;;;;8.87;50.39;100297.23;108816;1279;21956;-77
2023/02/23 11:09:52;;;;;;;28.10;21.00;;;;;;;8.95;50.33;100295.76;108476;1285;23752;-77
2023/02/23 11:14:26;;;;;;;;;;;;;;;;;;;;;
2023/02/23 11:18:21;;;;;;;;;;;;;;;;;;;;;
2023/02/23 11:21:24;;;;;;;27.80;20.90;;;;;;;9.22;50.49;100281.36;107854;1293;22785;-78
2023/02/23 11:24:57;;;;;;;24.60;19.10;;;;;;;9.35;49.66;100276.55;107871;1289;22386;-76
2023/02/23 11:28:09;;;;;;;26.00;20.20;;;;;;;9.42;49.92;100270.59;108132;1284;22034;-78
2023/02/23 11:31:41;;;;;;;26.10;19.80;;;;;;;9.23;49.13;100264.13;108316;1283;21971;-77
2023/02/23 11:35:07;;;;;;;;;;;;;;;;;;;;;
2023/02/23 11:38:33;;;;;;;;;;;;;;;;;;;;;
2023/02/23 11:42:16;;;;;;;;;;;;;;;;;;;;;
2023/02/23 11:45:27;;;;;;;34.30;26.60;;;;;;;8.16;49.73;100245.77;107741;1293;22003;-77
2023/02/23 11:48:34;;;;;;;27.70;22.70;;;;;;;8.02;50.58;100241.84;107913;1293;22028;-79
2023/02/23 11:51:48;;;;;;;22.60;19.50;;;;;;;8.04;50.91;100242.83;107606;1295;22034;-78
2023/02/23 11:54:37;;;;;;;30.10;19.30;;;;;;;7.90;50.90;100242.34;108129;1285;23636;-78
2023/02/23 11:57:21;;;;;;;25.40;18.90;;;;;;;7.75;51.21;100236.02;108389;1278;23802;-79
2023/02/23 12:00:29;;;;;;;27.60;19.30;;;;;;;7.62;51.49;100228.05;109181;1274;21986;-77
2023/02/23 12:04:07;;;;;;;26.90;20.10;;;;;;;7.55;52.07;100219.77;109144;1274;23089;-78
2023/02/23 12:07:37;;;;;;;26.50;19.80;;;;;;;7.64;52.36;100213.64;108974;1276;21979;-76
2023/02/23 12:10:53;;;;;;;34.40;21.00;;;;;;;7.66;52.14;100208.03;109930;1255;21981;-78
2023/02/23 12:14:29;;;;;;;28.30;21.20;;;;;;;7.57;52.34;100200.65;109668;1268;21953;-78
2023/02/23 12:17:32;;;;;;;29.70;21.70;;;;;;;7.61;52.75;100197.77;110016;1265;21995;-78
2023/02/23 12:20:56;;;;;;;29.60;21.90;;;;;;;7.71;52.89;100201.30;109633;1268;21981;-78
2023/02/23 12:25:44;;;;;;;28.20;20.10;;;;;;;7.80;52.80;100198.44;110089;1254;21986;-78
2023/02/23 12:28:46;;;;;;;31.80;20.70;;;;;;;7.84;52.62;100197.64;109909;1268;23020;-78
2023/02/23 12:32:26;;;;;;;;;;;;;;;;;;;;;
2023/02/23 12:35:56;;;;;;;28.70;18.90;;;;;;;7.85;52.77;100187.23;109235;1272;22923;-78
2023/02/23 12:39:33;;;;;;;26.20;19.80;;;;;;;7.87;52.90;100182.15;108676;1280;22416;-76
2023/02/23 12:43:31;;;;;;;;;;;;;;;;;;;;;
2023/02/23 12:46:57;;;;;;;;;;;;;;;;;;;;;
2023/02/23 12:50:53;;;;;;;28.90;22.30;;;;;;;8.08;53.00;100176.15;108453;1285;24096;-76
2023/02/23 12:53:56;;;;;;;27.30;21.80;;;;;;;8.16;52.88;100172.95;107219;1298;22021;-76
2023/02/23 12:56:55;;;;;;;28.90;23.60;;;;;;;8.26;52.75;100170.04;107360;1295;22025;-77
2023/02/23 13:00:22;;;;;;;23.20;18.00;;;;;;;8.36;52.84;100169.40;107660;1290;22002;-77
2023/02/23 13:04:01;;;;;;;22.80;17.60;;;;;;;8.41;52.20;100169.27;108327;1286;21977;-77
2023/02/23 13:07:05;;;;;;;17.80;13.80;;;;;;;8.38;52.15;100166.73;108522;1286;22758;-78
2023/02/23 13:10:23;;;;;;;23.10;17.30;;;;;;;8.36;52.20;100161.25;108615;1273;23520;-78
2023/02/23 13:13:03;;;;;;;22.60;15.20;;;;;;;8.31;52.14;100158.98;108798;1277;23712;-76
2023/02/23 13:16:56;;;;;;;18.30;13.50;;;;;;;8.23;52.19;100153.48;108703;1279;23550;-75
2023/02/23 13:19:49;;;;;;;21.70;15.40;;;;;;;8.15;52.32;100149.58;109043;1270;21984;-76
2023/02/23 13:23:37;;;;;;;21.10;16.80;;;;;;;8.15;52.54;100143.67;109083;1270;21973;-75
2023/02/23 13:26:51;;;;;;;22.50;17.50;;;;;;;8.15;52.60;100139.89;108948;1277;23634;-76
2023/02/23 13:29:54;;;;;;;22.50;15.00;;;;;;;8.17;52.69;100139.30;109096;1270;24117;-75
2023/02/23 13:32:41;;;;;;;24.40;16.40;;;;;;;8.19;52.76;100137.83;109433;1268;23087;-76
2023/02/23 13:35:38;;;;;;;26.00;17.40;;;;;;;8.22;52.56;100138.46;109158;1270;23763;-76
2023/02/23 13:39:36;;;;;;;;;;;;;;;;;;;;;
2023/02/23 13:43:06;;;;;;;25.60;18.50;;;;;;;8.13;52.83;100129.89;109719;1271;21983;-78
2023/02/23 13:46:49;;;;;;;24.90;17.90;;;;;;;8.11;52.93;100126.48;109558;1271;22014;-77
2023/02/23 13:51:31;;;;;;;;;;;;;;;;;;;;;
2023/02/23 13:55:13;;;;;;;24.50;19.30;;;;;;;8.03;53.38;100119.80;108448;1284;23651;-75
2023/02/23 14:14:31;;;;;;;;;;;;;;;;;;;;;
2023/02/23 14:17:54;;;;;;;24.20;19.50;;;;;;;9.30;50.80;100099.61;105303;1275;5018949;-73
2023/02/23 14:21:39;;;;;;;28.00;21.90;;;;;;;9.01;51.61;100102.05;109520;1271;21978;-73
2023/02/23 14:24:16;;;;;;;32.10;25.50;;;;;;;8.77;52.20;100099.22;108523;1282;22022;-74
2023/02/23 14:27:44;;;;;;;29.90;23.60;;;;;;;8.67;52.51;100093.51;108545;1277;23724;-78
2023/02/23 14:30:27;;;;;;;31.10;23.80;;;;;;;8.57;53.07;100092.26;108209;1288;22007;-75
2023/02/23 14:33:44;;;;;;;39.30;26.90;;;;;;;8.51;53.42;100092.14;108281;1287;22014;-76
2023/02/23 14:37:29;;;;;;;40.90;29.70;;;;;;;8.39;53.86;100089.17;108434;1287;22778;-76
2023/02/23 14:40:34;;;;;;;40.60;31.20;;;;;;;8.38;54.05;100087.33;108370;1287;22002;-74
2023/02/23 14:44:13;;;;;;;36.70;27.60;;;;;;;8.42;54.24;100087.39;108188;1287;22013;-75
2023/02/23 14:47:22;;;;;;;32.80;25.60;;;;;;;8.42;54.56;100083.20;107798;1293;21998;-73
2023/02/23 14:50:16;;;;;;;37.70;28.60;;;;;;;8.43;54.42;100077.29;108082;1289;23310;-75
2023/02/23 14:53:28;;;;;;;33.00;27.20;;;;;;;8.43;54.63;100075.57;108078;1289;23061;-75
2023/02/23 14:56:36;;;;;;;;;;;;;;;;;;;;;
2023/02/23 14:59:53;;;;;;;32.20;24.60;;;;;;;8.36;54.96;100078.36;108383;1283;23052;-75
2023/02/23 15:06:55;;;;;;;32.10;25.60;;;;;;;8.29;55.52;100072.88;109431;1271;21999;-75
2023/02/23 15:10:33;;;;;;;34.50;25.50;;;;;;;8.26;55.67;100067.77;109409;1271;23602;-75
2023/02/23 15:13:41;;;;;;;31.80;23.60;;;;;;;8.22;55.63;100064.59;108867;1277;24340;-75
2023/02/23 15:17:02;;;;;;;30.50;24.80;;;;;;;8.17;55.70;100060.77;108911;1277;22451;-75
2023/02/23 15:20:47;;;;;;;32.00;24.40;;;;;;;8.13;55.75;100059.35;108506;1283;23783;-78
2023/02/23 15:24:33;;;;;;;;;;;;;;;;;;;;;
2023/02/23 15:27:52;;;;;;;;;;;;;;;;;;;;;
2023/02/23 15:30:57;;;;;;;44.40;31.80;;;;;;;8.07;56.10;100049.68;109194;1272;21993;-73
2023/02/23 15:34:23;;;;;;;43.90;34.80;;;;;;;8.06;56.24;100049.69;109177;1271;22472;-75
2023/02/23 15:37:49;;;;;;;50.00;35.50;;;;;;;8.07;56.31;100048.98;109320;1272;21981;-75
2023/02/23 15:40:56;;;;;;;;;;;;;;;8.01;56.41;100041.70;109842;1267;23585;-74
2023/02/23 15:44:14;;;;;;;42.00;32.40;;;;;;;7.87;56.58;100032.64;110497;1261;22005;-75
2023/02/23 15:47:17;;;;;;;43.70;34.00;;;;;;;7.82;56.76;100028.80;110523;1261;22193;-75
2023/02/23 15:50:35;;;;;;;41.30;31.40;;;;;;;7.77;56.71;100026.86;110453;1261;22045;-76
2023/02/23 15:53:52;;;;;;;42.90;33.30;;;;;;;7.68;56.93;100025.93;110579;1260;23742;-73
2023/02/23 15:56:32;;;;;;;63.50;49.40;;;;;;;7.64;56.94;100025.55;110507;1260;22341;-75
2023/02/23 15:59:24;;;;;;;48.50;40.80;;;;;;;7.61;57.16;100023.87;110612;1261;22009;-73
2023/02/23 16:02:15;;;;;;;48.20;39.00;;;;;;;7.58;57.35;100018.09;110377;1261;22453;-74
2023/02/23 16:05:19;;;;;;;47.10;38.50;;;;;;;7.56;57.46;100017.66;110572;1260;22555;-76
2023/02/23 16:09:19;;;;;;;53.70;39.00;;;;;;;7.52;57.78;100016.23;110467;1260;21997;-73
2023/02/23 16:12:46;;;;;;;55.60;40.20;;;;;;;7.44;57.94;100010.23;109845;1268;23051;-73
2023/02/23 16:15:51;;;;;;;47.60;35.30;;;;;;;7.37;58.36;100009.56;108949;1277;22381;-74
2023/02/23 16:22:26;;;;;;;52.60;41.50;;;;;;;7.27;58.52;100008.66;108382;1282;23271;-74
2023/02/23 16:39:16;;;;;;;67.50;51.00;;;;;;;8.59;55.34;99998.00;109642;1259;2206622;-78
2023/02/23 16:42:41;;;;;;;66.60;51.30;;;;;;;8.11;56.28;99998.40;111870;1247;21973;-75
2023/02/23 16:49:32;;;;;;;59.90;45.10;;;;;;;7.63;57.78;99992.66;112926;1239;22418;-78
2023/02/23 16:56:55;;;;;;;83.40;64.30;;;;;;;7.37;58.69;99986.55;112000;1243;21979;-76
2023/02/23 17:00:36;;;;;;;85.20;61.00;;;;;;;7.26;58.98;99981.84;112591;1238;22283;-76
2023/02/23 17:04:14;;;;;;;95.20;80.50;;;;;;;7.17;59.15;99980.05;113168;1238;22052;-76
2023/02/23 17:08:12;;;;;;;;;;;;;;;;;;;;;
2023/02/23 17:11:20;;;;;;;75.80;59.70;;;;;;;7.07;59.76;99977.42;112167;1245;23098;-79
2023/02/23 17:14:41;;;;;;;86.90;64.30;;;;;;;7.05;59.87;99976.59;111954;1245;22152;-75
2023/02/23 17:19:06;;;;;;;91.40;70.90;;;;;;;7.01;59.96;99973.79;112160;1245;21945;-75
2023/02/23 17:22:43;;;;;;;99.70;79.40;;;;;;;6.94;60.18;99975.69;111168;1255;23064;-76
2023/02/23 17:25:34;;;;;;;94.60;70.70;;;;;;;6.95;60.26;99972.20;110571;1262;22043;-77
2023/02/23 17:28:24;;;;;;;82.00;63.10;;;;;;;6.94;60.38;99971.90;110497;1262;21969;-76
2023/02/23 17:31:42;;;;;;;112.90;83.10;;;;;;;6.88;60.52;99966.86;110254;1265;22025;-76
2023/02/23 17:35:08;;;;;;;130.50;105.90;;;;;;;6.82;60.76;99965.66;110673;1260;21976;-77
2023/02/23 17:38:40;;;;;;;139.70;111.10;;;;;;;6.77;60.83;99966.34;110749;1260;21981;-77
2023/02/23 17:41:50;;;;;;;100.30;73.90;;;;;;;6.73;61.13;99963.66;110363;1263;21983;-77
2023/02/23 17:44:53;;;;;;;94.20;68.10;;;;;;;6.73;61.10;99958.83;110083;1262;23588;-77
2023/02/23 17:47:35;;;;;;;94.10;63.70;;;;;;;6.72;61.28;99959.55;110382;1262;22226;-76
2023/02/23 17:50:14;;;;;;;97.20;69.50;;;;;;;6.73;61.31;99956.24;109969;1262;22031;-77
2023/02/23 17:53:10;;;;;;;102.10;69.50;;;;;;;6.74;61.53;99953.45;110296;1262;22029;-75
2023/02/23 17:55:45;;;;;;;82.80;60.50;;;;;;;6.76;61.44;99949.77;110337;1257;22722;-75
2023/02/23 17:59:07;;;;;;;80.40;60.50;;;;;;;6.75;61.66;99948.90;111100;1248;21949;-77
2023/02/23 18:01:40;;;;;;;82.00;59.40;;;;;;;6.70;61.85;99945.59;112498;1230;21936;-78
2023/02/23 18:04:24;;;;;;;80.30;58.30;;;;;;;6.68;61.78;99943.08;113519;1230;22944;-77
2023/02/23 18:07:24;;;;;;;91.20;63.10;;;;;;;6.64;61.96;99944.90;113717;1230;24262;-76
2023/02/23 18:10:01;;;;;;;103.90;68.60;;;;;;;6.61;62.02;99942.02;113024;1237;22086;-75
2023/02/23 18:12:52;;;;;;;96.10;69.10;;;;;;;6.59;62.14;99937.60;112810;1237;21960;-76
2023/02/23 18:15:55;;;;;;;109.40;72.30;;;;;;;6.58;62.36;99933.49;112842;1237;21969;-76
2023/02/23 18:18:56;;;;;;;90.40;70.50;;;;;;;6.56;62.51;99928.52;112553;1230;23043;-76
2023/02/23 18:21:56;;;;;;;88.20;66.50;;;;;;;6.55;62.57;99935.64;112424;1244;23014;-76
2023/02/23 18:24:37;;;;;;;85.10;63.20;;;;;;;6.57;62.70;99936.96;111785;1247;21958;-77
2023/02/23 18:27:30;;;;;;;84.80;61.90;;;;;;;6.57;62.83;99928.16;111861;1247;23142;-77
2023/02/23 18:30:00;;;;;;;116.50;80.50;;;;;;;6.60;62.84;99930.48;111411;1251;22449;-78
2023/02/23 18:32:59;;;;;;;;;;;;;;;;;;;;;
2023/02/23 18:36:03;;;;;;;121.40;84.30;;;;;;;6.62;63.11;99928.34;111993;1248;22706;-77
2023/02/23 18:38:59;;;;;;;122.60;82.90;;;;;;;6.63;63.15;99924.67;111714;1248;21961;-75
2023/02/23 18:42:06;;;;;;;108.50;77.60;;;;;;;6.65;63.17;99920.48;111435;1247;22324;-75
2023/02/23 18:45:11;;;;;;;113.80;78.50;;;;;;;6.65;63.19;99918.40;111441;1251;21997;-78
2023/02/23 18:48:09;;;;;;;136.70;88.70;;;;;;;6.67;63.41;99916.30;112442;1239;22110;-76
2023/02/23 18:51:25;;;;;;;;;;;;;;;;;;;;;
2023/02/23 18:59:26;;;;;;;108.90;78.60;;;;;;;6.71;63.71;99905.61;112442;1242;21944;-77
2023/02/23 19:02:40;;;;;;;111.00;76.30;;;;;;;6.73;63.67;99906.59;113037;1237;23290;-76
2023/02/23 19:06:46;;;;;;;132.00;82.00;;;;;;;6.69;63.67;99903.95;111381;1255;23591;-77
2023/02/23 19:10:48;;;;;;;84.60;62.50;;;;;;;6.63;63.91;99897.70;111261;1254;24193;-75
2023/02/23 19:14:16;;;;;;;76.10;58.40;;;;;;;6.60;64.08;99892.95;110576;1259;21971;-76
2023/02/23 19:18:03;;;;;;;95.90;65.00;;;;;;;6.60;64.31;99891.06;110685;1260;21995;-77
2023/02/23 19:21:15;;;;;;;93.10;67.20;;;;;;;6.66;64.41;99885.20;110637;1260;21971;-76
2023/02/23 19:23:59;;;;;;;92.60;67.60;;;;;;;6.73;64.52;99884.10;110388;1260;21925;-78
2023/02/23 19:27:51;;;;;;;103.20;70.90;;;;;;;6.76;64.48;99889.22;110969;1260;21992;-76
2023/02/23 19:31:16;;;;;;;97.60;69.80;;;;;;;6.83;64.52;99890.24;110335;1264;21976;-76
2023/02/23 19:34:27;;;;;;;106.00;74.70;;;;;;;6.91;64.35;99889.64;110506;1260;22050;-77
2023/02/23 19:38:15;;;;;;;110.50;82.10;;;;;;;6.98;64.37;99888.73;111029;1256;23749;-75
2023/02/23 19:40:56;;;;;;;101.90;74.50;;;;;;;7.06;64.35;99886.79;110940;1258;23824;-76
2023/02/23 19:43:55;;;;;;;93.50;69.90;;;;;;;7.12;64.24;99885.37;111346;1249;21946;-78
2023/02/23 19:47:47;;;;;;;;;;;;;;;;;;;;;
2023/02/23 19:51:11;;;;;;;88.60;62.20;;;;;;;7.18;64.20;99880.52;110669;1257;21995;-77
2023/02/23 19:54:11;;;;;;;110.40;77.10;;;;;;;7.23;63.95;99876.36;110902;1257;23728;-78
2023/02/23 19:57:22;;;;;;;116.70;81.30;;;;;;;7.25;64.13;99876.67;110896;1257;22967;-81
2023/02/23 20:01:31;;;;;;;;;;;;;;;;;;;;;